sensor_id;sensor_type;location;lat;lon;timestamp;P1;durP1;ratioP1;P2;durP2;ratioP2
74457;SDS011;62896;51.032;3.712;2023-04-25T00:02:52;19.5;;;3.6;;
74457;SDS011;62896;51.032;3.712;2023-04-25T00:06:12;19.5;;;3.6;;
74457;SDS011;62896;51.032;3.712;2023-04-25T00:09:32;19.5;;;3.6;;
74457;SDS011;62896;51.032;3.712;2023-04-25T00:12:52;22.6;;;4.3;;
74457;SDS011;62896;51.032;3.712;2023-04-25T00:16:12;22.6;;;4.3;;
74457;SDS011;62896;51.032;3.712;2023-04-25T00:19:32;22.6;;;4.3;;
74457;SDS011;62896;51.032;3.712;2023-04-25T00:22:52;22.6;;;4.3;;
74457;SDS011;62896;51.032;3.712;2023-04-25T00:26:12;22.6;;;4.3;;
74457;SDS011;62896;51.032;3.712;2023-04-25T00:29:32;22.6;;;4.3;;
74457;SDS011;62896;51.032;3.712;2023-04-25T00:32:52;22.6;;;4.3;;
74457;SDS011;62896;51.032;3.712;2023-04-25T00:36:13;25.8;;;4.4;;
74457;SDS011;62896;51.032;3.712;2023-04-25T00:39:32;25.8;;;4.4;;
74457;SDS011;62896;51.032;3.712;2023-04-25T00:42:52;25.8;;;4.4;;
74457;SDS011;62896;51.032;3.712;2023-04-25T00:46:12;25.8;;;4.4;;
74457;SDS011;62896;51.032;3.712;2023-04-25T00:49:32;25.8;;;4.4;;
74457;SDS011;62896;51.032;3.712;2023-04-25T00:52:52;25.8;;;4.4;;
74457;SDS011;62896;51.032;3.712;2023-04-25T00:56:12;25.8;;;4.4;;
74457;SDS011;62896;51.032;3.712;2023-04-25T00:59:32;25.8;;;4.4;;
74457;SDS011;62896;51.032;3.712;2023-04-25T01:02:52;17.4;;;3.1;;
74457;SDS011;62896;51.032;3.712;2023-04-25T01:06:12;17.4;;;3.1;;
74457;SDS011;62896;51.032;3.712;2023-04-25T01:09:32;17.4;;;3.1;;
74457;SDS011;62896;51.032;3.712;2023-04-25T01:12:52;17.4;;;3.1;;
74457;SDS011;62896;51.032;3.712;2023-04-25T01:16:12;17.4;;;3.1;;
74457;SDS011;62896;51.032;3.712;2023-04-25T01:19:32;17.4;;;3.1;;
74457;SDS011;62896;51.032;3.712;2023-04-25T01:22:52;17.4;;;3.1;;
74457;SDS011;62896;51.032;3.712;2023-04-25T01:26:12;20.5;;;3.3;;
74457;SDS011;62896;51.032;3.712;2023-04-25T01:29:32;20.5;;;3.3;;
74457;SDS011;62896;51.032;3.712;2023-04-25T01:32:52;20.5;;;3.3;;
74457;SDS011;62896;51.032;3.712;2023-04-25T01:36:12;20.5;;;3.3;;
74457;SDS011;62896;51.032;3.712;2023-04-25T01:39:32;20.5;;;3.3;;
74457;SDS011;62896;51.032;3.712;2023-04-25T01:42:52;20.5;;;3.3;;
74457;SDS011;62896;51.032;3.712;2023-04-25T01:46:12;20.5;;;3.3;;
74457;SDS011;62896;51.032;3.712;2023-04-25T01:49:32;20.5;;;3.3;;
74457;SDS011;62896;51.032;3.712;2023-04-25T01:52:52;17.4;;;3.7;;
74457;SDS011;62896;51.032;3.712;2023-04-25T01:56:12;17.4;;;3.7;;
74457;SDS011;62896;51.032;3.712;2023-04-25T01:59:32;17.4;;;3.7;;
74457;SDS011;62896;51.032;3.712;2023-04-25T02:02:52;17.4;;;3.7;;
74457;SDS011;62896;51.032;3.712;2023-04-25T02:06:12;17.4;;;3.7;;
74457;SDS011;62896;51.032;3.712;2023-04-25T02:09:32;17.4;;;3.7;;
74457;SDS011;62896;51.032;3.712;2023-04-25T02:12:52;17.4;;;3.7;;
74457;SDS011;62896;51.032;3.712;2023-04-25T02:16:12;17.2;;;3.8;;
74457;SDS011;62896;51.032;3.712;2023-04-25T02:19:32;17.2;;;3.8;;
74457;SDS011;62896;51.032;3.712;2023-04-25T02:22:52;17.2;;;3.8;;
74457;SDS011;62896;51.032;3.712;2023-04-25T02:26:12;17.2;;;3.8;;
74457;SDS011;62896;51.032;3.712;2023-04-25T02:29:32;17.2;;;3.8;;
74457;SDS011;62896;51.032;3.712;2023-04-25T02:32:52;17.2;;;3.8;;
74457;SDS011;62896;51.032;3.712;2023-04-25T02:36:12;17.2;;;3.8;;
74457;SDS011;62896;51.032;3.712;2023-04-25T02:39:32;17.2;;;3.8;;
74457;SDS011;62896;51.032;3.712;2023-04-25T02:42:52;21.9;;;4.2;;
74457;SDS011;62896;51.032;3.712;2023-04-25T02:46:12;21.9;;;4.2;;
74457;SDS011;62896;51.032;3.712;2023-04-25T02:49:32;21.9;;;4.2;;
74457;SDS011;62896;51.032;3.712;2023-04-25T02:52:52;21.9;;;4.2;;
74457;SDS011;62896;51.032;3.712;2023-04-25T02:56:12;21.9;;;4.2;;
74457;SDS011;62896;51.032;3.712;2023-04-25T02:59:32;21.9;;;4.2;;
74457;SDS011;62896;51.032;3.712;2023-04-25T03:02:52;21.9;;;4.2;;
74457;SDS011;62896;51.032;3.712;2023-04-25T03:06:12;19;;;3.8;;
74457;SDS011;62896;51.032;3.712;2023-04-25T03:09:32;19;;;3.8;;
74457;SDS011;62896;51.032;3.712;2023-04-25T03:12:52;19;;;3.8;;
74457;SDS011;62896;51.032;3.712;2023-04-25T03:16:12;19;;;3.8;;
74457;SDS011;62896;51.032;3.712;2023-04-25T03:19:32;19;;;3.8;;
74457;SDS011;62896;51.032;3.712;2023-04-25T03:22:52;19;;;3.8;;
74457;SDS011;62896;51.032;3.712;2023-04-25T03:26:12;19;;;3.8;;
74457;SDS011;62896;51.032;3.712;2023-04-25T03:29:32;19;;;3.8;;
74457;SDS011;62896;51.032;3.712;2023-04-25T03:32:52;15.2;;;2.9;;
74457;SDS011;62896;51.032;3.712;2023-04-25T03:36:12;15.2;;;2.9;;
74457;SDS011;62896;51.032;3.712;2023-04-25T03:39:32;15.2;;;2.9;;
74457;SDS011;62896;51.032;3.712;2023-04-25T03:42:52;15.2;;;2.9;;
74457;SDS011;62896;51.032;3.712;2023-04-25T03:46:12;15.2;;;2.9;;
74457;SDS011;62896;51.032;3.712;2023-04-25T03:49:33;15.2;;;2.9;;
74457;SDS011;62896;51.032;3.712;2023-04-25T03:52:52;15.2;;;2.9;;
74457;SDS011;62896;51.032;3.712;2023-04-25T03:56:12;18.4;;;3.3;;
74457;SDS011;62896;51.032;3.712;2023-04-25T03:59:32;18.4;;;3.3;;
74457;SDS011;62896;51.032;3.712;2023-04-25T04:02:52;18.4;;;3.3;;
74457;SDS011;62896;51.032;3.712;2023-04-25T04:06:12;18.4;;;3.3;;
74457;SDS011;62896;51.032;3.712;2023-04-25T04:09:32;18.4;;;3.3;;
74457;SDS011;62896;51.032;3.712;2023-04-25T04:12:52;18.4;;;3.3;;
74457;SDS011;62896;51.032;3.712;2023-04-25T04:16:12;18.4;;;3.3;;
74457;SDS011;62896;51.032;3.712;2023-04-25T04:19:32;18.4;;;3.3;;
74457;SDS011;62896;51.032;3.712;2023-04-25T04:22:52;13.8;;;2.6;;
74457;SDS011;62896;51.032;3.712;2023-04-25T04:26:12;13.8;;;2.6;;
74457;SDS011;62896;51.032;3.712;2023-04-25T04:29:32;13.8;;;2.6;;
74457;SDS011;62896;51.032;3.712;2023-04-25T04:32:52;13.8;;;2.6;;
74457;SDS011;62896;51.032;3.712;2023-04-25T04:36:12;13.8;;;2.6;;
74457;SDS011;62896;51.032;3.712;2023-04-25T04:39:32;13.8;;;2.6;;
74457;SDS011;62896;51.032;3.712;2023-04-25T04:42:52;13.8;;;2.6;;
74457;SDS011;62896;51.032;3.712;2023-04-25T04:46:12;13.6;;;2.6;;
74457;SDS011;62896;51.032;3.712;2023-04-25T04:49:32;13.6;;;2.6;;
74457;SDS011;62896;51.032;3.712;2023-04-25T04:52:52;13.6;;;2.6;;
74457;SDS011;62896;51.032;3.712;2023-04-25T04:56:12;13.6;;;2.6;;
74457;SDS011;62896;51.032;3.712;2023-04-25T04:59:32;13.6;;;2.6;;
74457;SDS011;62896;51.032;3.712;2023-04-25T05:02:52;13.6;;;2.6;;
74457;SDS011;62896;51.032;3.712;2023-04-25T05:06:12;13.6;;;2.6;;
74457;SDS011;62896;51.032;3.712;2023-04-25T05:09:32;13.6;;;2.6;;
74457;SDS011;62896;51.032;3.712;2023-04-25T05:12:52;12.5;;;3;;
74457;SDS011;62896;51.032;3.712;2023-04-25T05:16:13;12.5;;;3;;
74457;SDS011;62896;51.032;3.712;2023-04-25T05:19:32;12.5;;;3;;
74457;SDS011;62896;51.032;3.712;2023-04-25T05:22:52;12.5;;;3;;
74457;SDS011;62896;51.032;3.712;2023-04-25T05:26:12;12.5;;;3;;
74457;SDS011;62896;51.032;3.712;2023-04-25T05:29:32;12.5;;;3;;
74457;SDS011;62896;51.032;3.712;2023-04-25T05:32:52;12.5;;;3;;
74457;SDS011;62896;51.032;3.712;2023-04-25T05:36:12;12.5;;;2.7;;
74457;SDS011;62896;51.032;3.712;2023-04-25T05:39:32;12.5;;;2.7;;
74457;SDS011;62896;51.032;3.712;2023-04-25T05:42:52;12.5;;;2.7;;
74457;SDS011;62896;51.032;3.712;2023-04-25T05:46:12;12.5;;;2.7;;
74457;SDS011;62896;51.032;3.712;2023-04-25T05:49:33;12.5;;;2.7;;
74457;SDS011;62896;51.032;3.712;2023-04-25T05:52:52;12.5;;;2.7;;
74457;SDS011;62896;51.032;3.712;2023-04-25T05:56:12;12.5;;;2.7;;
74457;SDS011;62896;51.032;3.712;2023-04-25T05:59:32;12.5;;;2.7;;
74457;SDS011;62896;51.032;3.712;2023-04-25T06:02:52;13.1;;;2.2;;
74457;SDS011;62896;51.032;3.712;2023-04-25T06:06:12;13.1;;;2.2;;
74457;SDS011;62896;51.032;3.712;2023-04-25T06:09:32;13.1;;;2.2;;
74457;SDS011;62896;51.032;3.712;2023-04-25T06:12:52;13.1;;;2.2;;
74457;SDS011;62896;51.032;3.712;2023-04-25T06:16:12;13.1;;;2.2;;
74457;SDS011;62896;51.032;3.712;2023-04-25T06:19:32;13.1;;;2.2;;
74457;SDS011;62896;51.032;3.712;2023-04-25T06:22:52;13.1;;;2.2;;
74457;SDS011;62896;51.032;3.712;2023-04-25T06:26:12;9.3;;;2.3;;
74457;SDS011;62896;51.032;3.712;2023-04-25T06:29:32;9.3;;;2.3;;
74457;SDS011;62896;51.032;3.712;2023-04-25T06:32:52;9.3;;;2.3;;
74457;SDS011;62896;51.032;3.712;2023-04-25T06:36:12;9.3;;;2.3;;
74457;SDS011;62896;51.032;3.712;2023-04-25T06:39:32;9.3;;;2.3;;
74457;SDS011;62896;51.032;3.712;2023-04-25T06:42:52;9.3;;;2.3;;
74457;SDS011;62896;51.032;3.712;2023-04-25T06:46:12;9.3;;;2.3;;
74457;SDS011;62896;51.032;3.712;2023-04-25T06:49:32;9.3;;;2.3;;
74457;SDS011;62896;51.032;3.712;2023-04-25T06:52:52;14.9;;;2;;
74457;SDS011;62896;51.032;3.712;2023-04-25T06:56:12;14.9;;;2;;
74457;SDS011;62896;51.032;3.712;2023-04-25T06:59:32;14.9;;;2;;
74457;SDS011;62896;51.032;3.712;2023-04-25T07:02:52;14.9;;;2;;
74457;SDS011;62896;51.032;3.712;2023-04-25T07:06:12;14.9;;;2;;
74457;SDS011;62896;51.032;3.712;2023-04-25T07:09:32;14.9;;;2;;
74457;SDS011;62896;51.032;3.712;2023-04-25T07:12:52;14.9;;;2;;
74457;SDS011;62896;51.032;3.712;2023-04-25T07:16:12;12.7;;;2;;
74457;SDS011;62896;51.032;3.712;2023-04-25T07:19:32;12.7;;;2;;
74457;SDS011;62896;51.032;3.712;2023-04-25T07:22:52;12.7;;;2;;
74457;SDS011;62896;51.032;3.712;2023-04-25T07:26:12;12.7;;;2;;
74457;SDS011;62896;51.032;3.712;2023-04-25T07:29:32;12.7;;;2;;
74457;SDS011;62896;51.032;3.712;2023-04-25T07:32:52;12.7;;;2;;
74457;SDS011;62896;51.032;3.712;2023-04-25T07:36:12;12.7;;;2;;
74457;SDS011;62896;51.032;3.712;2023-04-25T07:39:32;12.7;;;2;;
74457;SDS011;62896;51.032;3.712;2023-04-25T07:42:52;9.9;;;1.7;;
74457;SDS011;62896;51.032;3.712;2023-04-25T07:46:12;9.9;;;1.7;;
74457;SDS011;62896;51.032;3.712;2023-04-25T07:49:32;9.9;;;1.7;;
74457;SDS011;62896;51.032;3.712;2023-04-25T07:52:52;9.9;;;1.7;;
74457;SDS011;62896;51.032;3.712;2023-04-25T07:56:12;9.9;;;1.7;;
74457;SDS011;62896;51.032;3.712;2023-04-25T07:59:32;9.9;;;1.7;;
74457;SDS011;62896;51.032;3.712;2023-04-25T08:02:52;9.9;;;1.7;;
74457;SDS011;62896;51.032;3.712;2023-04-25T08:06:12;6.8;;;1.2;;
74457;SDS011;62896;51.032;3.712;2023-04-25T08:09:32;6.8;;;1.2;;
74457;SDS011;62896;51.032;3.712;2023-04-25T08:12:52;6.8;;;1.2;;
74457;SDS011;62896;51.032;3.712;2023-04-25T08:16:12;6.8;;;1.2;;
74457;SDS011;62896;51.032;3.712;2023-04-25T08:19:32;6.8;;;1.2;;
74457;SDS011;62896;51.032;3.712;2023-04-25T08:22:52;6.8;;;1.2;;
74457;SDS011;62896;51.032;3.712;2023-04-25T08:26:12;6.8;;;1.2;;
74457;SDS011;62896;51.032;3.712;2023-04-25T08:29:32;6.8;;;1.2;;
74457;SDS011;62896;51.032;3.712;2023-04-25T08:32:52;8.4;;;1.2;;
74457;SDS011;62896;51.032;3.712;2023-04-25T08:36:12;8.4;;;1.2;;
74457;SDS011;62896;51.032;3.712;2023-04-25T08:39:32;8.4;;;1.2;;
74457;SDS011;62896;51.032;3.712;2023-04-25T08:42:53;8.4;;;1.2;;
74457;SDS011;62896;51.032;3.712;2023-04-25T08:46:12;8.4;;;1.2;;
74457;SDS011;62896;51.032;3.712;2023-04-25T08:49:33;8.4;;;1.2;;
74457;SDS011;62896;51.032;3.712;2023-04-25T08:52:53;8.4;;;1.2;;
74457;SDS011;62896;51.032;3.712;2023-04-25T08:56:12;10;;;1.4;;
74457;SDS011;62896;51.032;3.712;2023-04-25T08:59:32;10;;;1.4;;
74457;SDS011;62896;51.032;3.712;2023-04-25T09:02:52;10;;;1.4;;
74457;SDS011;62896;51.032;3.712;2023-04-25T09:06:12;10;;;1.4;;
74457;SDS011;62896;51.032;3.712;2023-04-25T09:09:33;10;;;1.4;;
74457;SDS011;62896;51.032;3.712;2023-04-25T09:13:08;10;;;1.4;;
74457;SDS011;62896;51.032;3.712;2023-04-25T09:16:12;10;;;1.4;;
74457;SDS011;62896;51.032;3.712;2023-04-25T09:19:34;10;;;1.4;;
74457;SDS011;62896;51.032;3.712;2023-04-25T09:23:02;6.4;;;1.2;;
74457;SDS011;62896;51.032;3.712;2023-04-25T09:26:13;6.4;;;1.2;;
74457;SDS011;62896;51.032;3.712;2023-04-25T09:29:33;6.4;;;1.2;;
74457;SDS011;62896;51.032;3.712;2023-04-25T09:32:55;6.4;;;1.2;;
74457;SDS011;62896;51.032;3.712;2023-04-25T09:36:12;6.4;;;1.2;;
74457;SDS011;62896;51.032;3.712;2023-04-25T09:39:33;6.4;;;1.2;;
74457;SDS011;62896;51.032;3.712;2023-04-25T09:42:53;6.4;;;1.2;;
74457;SDS011;62896;51.032;3.712;2023-04-25T09:46:12;5.7;;;1.1;;
74457;SDS011;62896;51.032;3.712;2023-04-25T09:49:32;5.7;;;1.1;;
74457;SDS011;62896;51.032;3.712;2023-04-25T09:53:02;5.7;;;1.1;;
74457;SDS011;62896;51.032;3.712;2023-04-25T09:56:13;5.7;;;1.1;;
74457;SDS011;62896;51.032;3.712;2023-04-25T09:59:33;5.7;;;1.1;;
74457;SDS011;62896;51.032;3.712;2023-04-25T10:02:52;5.7;;;1.1;;
74457;SDS011;62896;51.032;3.712;2023-04-25T10:06:13;5.7;;;1.1;;
74457;SDS011;62896;51.032;3.712;2023-04-25T10:09:33;5.7;;;1.1;;
74457;SDS011;62896;51.032;3.712;2023-04-25T10:12:52;6.9;;;1.2;;
74457;SDS011;62896;51.032;3.712;2023-04-25T10:16:13;6.9;;;1.2;;
74457;SDS011;62896;51.032;3.712;2023-04-25T10:19:33;6.9;;;1.2;;
74457;SDS011;62896;51.032;3.712;2023-04-25T10:22:53;6.9;;;1.2;;
74457;SDS011;62896;51.032;3.712;2023-04-25T10:26:13;6.9;;;1.2;;
74457;SDS011;62896;51.032;3.712;2023-04-25T10:29:33;6.9;;;1.2;;
74457;SDS011;62896;51.032;3.712;2023-04-25T10:32:53;6.9;;;1.2;;
74457;SDS011;62896;51.032;3.712;2023-04-25T10:36:13;6.4;;;1.4;;
74457;SDS011;62896;51.032;3.712;2023-04-25T10:39:33;6.4;;;1.4;;
74457;SDS011;62896;51.032;3.712;2023-04-25T10:42:53;6.4;;;1.4;;
74457;SDS011;62896;51.032;3.712;2023-04-25T10:46:13;6.4;;;1.4;;
74457;SDS011;62896;51.032;3.712;2023-04-25T10:49:33;6.4;;;1.4;;
74457;SDS011;62896;51.032;3.712;2023-04-25T10:52:53;6.4;;;1.4;;
74457;SDS011;62896;51.032;3.712;2023-04-25T10:56:16;6.4;;;1.4;;
74457;SDS011;62896;51.032;3.712;2023-04-25T10:59:33;6.4;;;1.4;;
74457;SDS011;62896;51.032;3.712;2023-04-25T11:02:53;5.4;;;1.1;;
74457;SDS011;62896;51.032;3.712;2023-04-25T11:06:17;5.4;;;1.1;;
74457;SDS011;62896;51.032;3.712;2023-04-25T11:09:33;5.4;;;1.1;;
74457;SDS011;62896;51.032;3.712;2023-04-25T11:12:53;5.4;;;1.1;;
74457;SDS011;62896;51.032;3.712;2023-04-25T11:16:13;5.4;;;1.1;;
74457;SDS011;62896;51.032;3.712;2023-04-25T11:19:33;5.4;;;1.1;;
74457;SDS011;62896;51.032;3.712;2023-04-25T11:22:53;5.4;;;1.1;;
74457;SDS011;62896;51.032;3.712;2023-04-25T11:26:13;5.8;;;0.9;;
74457;SDS011;62896;51.032;3.712;2023-04-25T11:29:33;5.8;;;0.9;;
74457;SDS011;62896;51.032;3.712;2023-04-25T11:32:53;5.8;;;0.9;;
74457;SDS011;62896;51.032;3.712;2023-04-25T11:36:13;5.8;;;0.9;;
74457;SDS011;62896;51.032;3.712;2023-04-25T11:39:33;5.8;;;0.9;;
74457;SDS011;62896;51.032;3.712;2023-04-25T11:42:53;5.8;;;0.9;;
74457;SDS011;62896;51.032;3.712;2023-04-25T11:46:13;5.8;;;0.9;;
74457;SDS011;62896;51.032;3.712;2023-04-25T11:49:33;5.8;;;0.9;;
74457;SDS011;62896;51.032;3.712;2023-04-25T11:52:55;6.3;;;1;;
74457;SDS011;62896;51.032;3.712;2023-04-25T11:56:14;6.3;;;1;;
74457;SDS011;62896;51.032;3.712;2023-04-25T11:59:33;6.3;;;1;;
74457;SDS011;62896;51.032;3.712;2023-04-25T12:02:53;6.3;;;1;;
74457;SDS011;62896;51.032;3.712;2023-04-25T12:06:15;6.3;;;1;;
74457;SDS011;62896;51.032;3.712;2023-04-25T12:09:33;6.3;;;1;;
74457;SDS011;62896;51.032;3.712;2023-04-25T12:12:53;6.3;;;1;;
74457;SDS011;62896;51.032;3.712;2023-04-25T12:16:13;9.9;;;1.4;;
74457;SDS011;62896;51.032;3.712;2023-04-25T12:19:33;9.9;;;1.4;;
74457;SDS011;62896;51.032;3.712;2023-04-25T12:22:53;9.9;;;1.4;;
74457;SDS011;62896;51.032;3.712;2023-04-25T12:26:13;9.9;;;1.4;;
74457;SDS011;62896;51.032;3.712;2023-04-25T12:29:33;9.9;;;1.4;;
74457;SDS011;62896;51.032;3.712;2023-04-25T12:32:53;9.9;;;1.4;;
74457;SDS011;62896;51.032;3.712;2023-04-25T12:36:13;9.9;;;1.4;;
74457;SDS011;62896;51.032;3.712;2023-04-25T12:39:33;9.9;;;1.4;;
74457;SDS011;62896;51.032;3.712;2023-04-25T12:42:53;3.8;;;1.2;;
74457;SDS011;62896;51.032;3.712;2023-04-25T12:46:13;3.8;;;1.2;;
74457;SDS011;62896;51.032;3.712;2023-04-25T12:49:33;3.8;;;1.2;;
74457;SDS011;62896;51.032;3.712;2023-04-25T12:52:53;3.8;;;1.2;;
74457;SDS011;62896;51.032;3.712;2023-04-25T12:56:13;3.8;;;1.2;;
74457;SDS011;62896;51.032;3.712;2023-04-25T12:59:33;3.8;;;1.2;;
74457;SDS011;62896;51.032;3.712;2023-04-25T13:02:53;3.8;;;1.2;;
74457;SDS011;62896;51.032;3.712;2023-04-25T13:06:13;7.8;;;1.2;;
74457;SDS011;62896;51.032;3.712;2023-04-25T13:09:33;7.8;;;1.2;;
74457;SDS011;62896;51.032;3.712;2023-04-25T13:12:53;7.8;;;1.2;;
74457;SDS011;62896;51.032;3.712;2023-04-25T13:16:13;7.8;;;1.2;;
74457;SDS011;62896;51.032;3.712;2023-04-25T13:19:33;7.8;;;1.2;;
74457;SDS011;62896;51.032;3.712;2023-04-25T13:22:53;7.8;;;1.2;;
74457;SDS011;62896;51.032;3.712;2023-04-25T13:26:13;7.8;;;1.2;;
74457;SDS011;62896;51.032;3.712;2023-04-25T13:29:33;7.8;;;1.2;;
74457;SDS011;62896;51.032;3.712;2023-04-25T13:32:53;6.1;;;1.4;;
74457;SDS011;62896;51.032;3.712;2023-04-25T13:36:13;6.1;;;1.4;;
74457;SDS011;62896;51.032;3.712;2023-04-25T13:39:33;6.1;;;1.4;;
74457;SDS011;62896;51.032;3.712;2023-04-25T13:42:53;6.1;;;1.4;;
74457;SDS011;62896;51.032;3.712;2023-04-25T13:46:13;6.1;;;1.4;;
74457;SDS011;62896;51.032;3.712;2023-04-25T13:49:33;6.1;;;1.4;;
74457;SDS011;62896;51.032;3.712;2023-04-25T13:52:53;6.1;;;1.4;;
74457;SDS011;62896;51.032;3.712;2023-04-25T13:56:13;7.2;;;1.2;;
74457;SDS011;62896;51.032;3.712;2023-04-25T13:59:33;7.2;;;1.2;;
74457;SDS011;62896;51.032;3.712;2023-04-25T14:02:53;7.2;;;1.2;;
74457;SDS011;62896;51.032;3.712;2023-04-25T14:06:13;7.2;;;1.2;;
74457;SDS011;62896;51.032;3.712;2023-04-25T14:09:33;7.2;;;1.2;;
74457;SDS011;62896;51.032;3.712;2023-04-25T14:12:53;7.2;;;1.2;;
74457;SDS011;62896;51.032;3.712;2023-04-25T14:16:13;7.2;;;1.2;;
74457;SDS011;62896;51.032;3.712;2023-04-25T14:19:33;7.2;;;1.2;;
74457;SDS011;62896;51.032;3.712;2023-04-25T14:22:53;6.1;;;1.2;;
74457;SDS011;62896;51.032;3.712;2023-04-25T14:26:13;6.1;;;1.2;;
74457;SDS011;62896;51.032;3.712;2023-04-25T14:29:33;6.1;;;1.2;;
74457;SDS011;62896;51.032;3.712;2023-04-25T14:32:53;6.1;;;1.2;;
74457;SDS011;62896;51.032;3.712;2023-04-25T14:36:13;6.1;;;1.2;;
74457;SDS011;62896;51.032;3.712;2023-04-25T14:39:33;6.1;;;1.2;;
74457;SDS011;62896;51.032;3.712;2023-04-25T14:42:53;6.1;;;1.2;;
74457;SDS011;62896;51.032;3.712;2023-04-25T14:46:13;3.5;;;0.9;;
74457;SDS011;62896;51.032;3.712;2023-04-25T14:49:33;3.5;;;0.9;;
74457;SDS011;62896;51.032;3.712;2023-04-25T14:52:53;3.5;;;0.9;;
74457;SDS011;62896;51.032;3.712;2023-04-25T14:56:13;3.5;;;0.9;;
74457;SDS011;62896;51.032;3.712;2023-04-25T14:59:33;3.5;;;0.9;;
74457;SDS011;62896;51.032;3.712;2023-04-25T15:02:53;3.5;;;0.9;;
74457;SDS011;62896;51.032;3.712;2023-04-25T15:06:13;3.5;;;0.9;;
74457;SDS011;62896;51.032;3.712;2023-04-25T15:09:33;3.5;;;0.9;;
74457;SDS011;62896;51.032;3.712;2023-04-25T15:12:53;6.3;;;1.1;;
74457;SDS011;62896;51.032;3.712;2023-04-25T15:16:13;6.3;;;1.1;;
74457;SDS011;62896;51.032;3.712;2023-04-25T15:19:33;6.3;;;1.1;;
74457;SDS011;62896;51.032;3.712;2023-04-25T15:22:53;6.3;;;1.1;;
74457;SDS011;62896;51.032;3.712;2023-04-25T15:26:13;6.3;;;1.1;;
74457;SDS011;62896;51.032;3.712;2023-04-25T15:29:33;6.3;;;1.1;;
74457;SDS011;62896;51.032;3.712;2023-04-25T15:32:53;6.3;;;1.1;;
74457;SDS011;62896;51.032;3.712;2023-04-25T15:36:13;5.2;;;1.4;;
74457;SDS011;62896;51.032;3.712;2023-04-25T15:39:33;5.2;;;1.4;;
74457;SDS011;62896;51.032;3.712;2023-04-25T15:42:53;5.2;;;1.4;;
74457;SDS011;62896;51.032;3.712;2023-04-25T15:46:13;5.2;;;1.4;;
74457;SDS011;62896;51.032;3.712;2023-04-25T15:49:33;5.2;;;1.4;;
74457;SDS011;62896;51.032;3.712;2023-04-25T15:52:53;5.2;;;1.4;;
74457;SDS011;62896;51.032;3.712;2023-04-25T15:56:13;5.2;;;1.4;;
74457;SDS011;62896;51.032;3.712;2023-04-25T15:59:33;5.2;;;1.4;;
74457;SDS011;62896;51.032;3.712;2023-04-25T16:02:53;4.9;;;1.1;;
74457;SDS011;62896;51.032;3.712;2023-04-25T16:06:13;4.9;;;1.1;;
74457;SDS011;62896;51.032;3.712;2023-04-25T16:09:33;4.9;;;1.1;;
74457;SDS011;62896;51.032;3.712;2023-04-25T16:12:53;4.9;;;1.1;;
74457;SDS011;62896;51.032;3.712;2023-04-25T16:16:13;4.9;;;1.1;;
74457;SDS011;62896;51.032;3.712;2023-04-25T16:19:33;4.9;;;1.1;;
74457;SDS011;62896;51.032;3.712;2023-04-25T16:22:53;4.9;;;1.1;;
74457;SDS011;62896;51.032;3.712;2023-04-25T16:26:13;9.4;;;1.6;;
74457;SDS011;62896;51.032;3.712;2023-04-25T16:29:33;9.4;;;1.6;;
74457;SDS011;62896;51.032;3.712;2023-04-25T16:32:53;9.4;;;1.6;;
74457;SDS011;62896;51.032;3.712;2023-04-25T16:36:13;9.4;;;1.6;;
74457;SDS011;62896;51.032;3.712;2023-04-25T16:39:33;9.4;;;1.6;;
74457;SDS011;62896;51.032;3.712;2023-04-25T16:42:53;9.4;;;1.6;;
74457;SDS011;62896;51.032;3.712;2023-04-25T16:46:13;9.4;;;1.6;;
74457;SDS011;62896;51.032;3.712;2023-04-25T16:49:33;9.4;;;1.6;;
74457;SDS011;62896;51.032;3.712;2023-04-25T16:52:53;4.3;;;1.3;;
74457;SDS011;62896;51.032;3.712;2023-04-25T16:56:13;4.3;;;1.3;;
74457;SDS011;62896;51.032;3.712;2023-04-25T16:59:33;4.3;;;1.3;;
74457;SDS011;62896;51.032;3.712;2023-04-25T17:02:53;4.3;;;1.3;;
74457;SDS011;62896;51.032;3.712;2023-04-25T17:06:13;4.3;;;1.3;;
74457;SDS011;62896;51.032;3.712;2023-04-25T17:09:33;4.3;;;1.3;;
74457;SDS011;62896;51.032;3.712;2023-04-25T17:12:53;4.3;;;1.3;;
74457;SDS011;62896;51.032;3.712;2023-04-25T17:16:13;4.7;;;1.3;;
74457;SDS011;62896;51.032;3.712;2023-04-25T17:19:33;4.7;;;1.3;;
74457;SDS011;62896;51.032;3.712;2023-04-25T17:22:53;4.7;;;1.3;;
74457;SDS011;62896;51.032;3.712;2023-04-25T17:26:13;4.7;;;1.3;;
74457;SDS011;62896;51.032;3.712;2023-04-25T17:29:33;4.7;;;1.3;;
74457;SDS011;62896;51.032;3.712;2023-04-25T17:32:53;4.7;;;1.3;;
74457;SDS011;62896;51.032;3.712;2023-04-25T17:36:13;4.7;;;1.3;;
74457;SDS011;62896;51.032;3.712;2023-04-25T17:39:33;4.7;;;1.3;;
74457;SDS011;62896;51.032;3.712;2023-04-25T17:42:53;3.9;;;1.1;;
74457;SDS011;62896;51.032;3.712;2023-04-25T17:46:13;3.9;;;1.1;;
74457;SDS011;62896;51.032;3.712;2023-04-25T17:49:33;3.9;;;1.1;;
74457;SDS011;62896;51.032;3.712;2023-04-25T17:52:53;3.9;;;1.1;;
74457;SDS011;62896;51.032;3.712;2023-04-25T17:56:13;3.9;;;1.1;;
74457;SDS011;62896;51.032;3.712;2023-04-25T17:59:33;3.9;;;1.1;;
74457;SDS011;62896;51.032;3.712;2023-04-25T18:02:53;3.9;;;1.1;;
74457;SDS011;62896;51.032;3.712;2023-04-25T18:06:13;5.9;;;1.4;;
74457;SDS011;62896;51.032;3.712;2023-04-25T18:09:33;5.9;;;1.4;;
74457;SDS011;62896;51.032;3.712;2023-04-25T18:12:53;5.9;;;1.4;;
74457;SDS011;62896;51.032;3.712;2023-04-25T18:16:13;5.9;;;1.4;;
74457;SDS011;62896;51.032;3.712;2023-04-25T18:19:33;5.9;;;1.4;;
74457;SDS011;62896;51.032;3.712;2023-04-25T18:22:53;5.9;;;1.4;;
74457;SDS011;62896;51.032;3.712;2023-04-25T18:26:13;5.9;;;1.4;;
74457;SDS011;62896;51.032;3.712;2023-04-25T18:29:33;5.9;;;1.4;;
74457;SDS011;62896;51.032;3.712;2023-04-25T18:32:53;5.5;;;1.3;;
74457;SDS011;62896;51.032;3.712;2023-04-25T18:36:13;5.5;;;1.3;;
74457;SDS011;62896;51.032;3.712;2023-04-25T18:39:33;5.5;;;1.3;;
74457;SDS011;62896;51.032;3.712;2023-04-25T18:42:53;5.5;;;1.3;;
74457;SDS011;62896;51.032;3.712;2023-04-25T18:46:13;5.5;;;1.3;;
74457;SDS011;62896;51.032;3.712;2023-04-25T18:49:33;5.5;;;1.3;;
74457;SDS011;62896;51.032;3.712;2023-04-25T18:52:53;5.5;;;1.3;;
74457;SDS011;62896;51.032;3.712;2023-04-25T18:56:13;8;;;1.3;;
74457;SDS011;62896;51.032;3.712;2023-04-25T18:59:33;8;;;1.3;;
74457;SDS011;62896;51.032;3.712;2023-04-25T19:02:53;8;;;1.3;;
74457;SDS011;62896;51.032;3.712;2023-04-25T19:06:13;8;;;1.3;;
74457;SDS011;62896;51.032;3.712;2023-04-25T19:09:33;8;;;1.3;;
74457;SDS011;62896;51.032;3.712;2023-04-25T19:12:53;8;;;1.3;;
74457;SDS011;62896;51.032;3.712;2023-04-25T19:16:13;8;;;1.3;;
74457;SDS011;62896;51.032;3.712;2023-04-25T19:19:33;8;;;1.3;;
74457;SDS011;62896;51.032;3.712;2023-04-25T19:22:53;6.1;;;1.5;;
74457;SDS011;62896;51.032;3.712;2023-04-25T19:26:13;6.1;;;1.5;;
74457;SDS011;62896;51.032;3.712;2023-04-25T19:29:33;6.1;;;1.5;;
74457;SDS011;62896;51.032;3.712;2023-04-25T19:32:53;6.1;;;1.5;;
74457;SDS011;62896;51.032;3.712;2023-04-25T19:36:13;6.1;;;1.5;;
74457;SDS011;62896;51.032;3.712;2023-04-25T19:39:33;6.1;;;1.5;;
74457;SDS011;62896;51.032;3.712;2023-04-25T19:42:53;6.1;;;1.5;;
74457;SDS011;62896;51.032;3.712;2023-04-25T19:46:13;9.4;;;2.4;;
74457;SDS011;62896;51.032;3.712;2023-04-25T19:49:33;9.4;;;2.4;;
74457;SDS011;62896;51.032;3.712;2023-04-25T19:52:53;9.4;;;2.4;;
74457;SDS011;62896;51.032;3.712;2023-04-25T19:56:13;9.4;;;2.4;;
74457;SDS011;62896;51.032;3.712;2023-04-25T19:59:33;9.4;;;2.4;;
74457;SDS011;62896;51.032;3.712;2023-04-25T20:02:53;9.4;;;2.4;;
74457;SDS011;62896;51.032;3.712;2023-04-25T20:06:13;9.4;;;2.4;;
74457;SDS011;62896;51.032;3.712;2023-04-25T20:09:33;9.4;;;2.4;;
74457;SDS011;62896;51.032;3.712;2023-04-25T20:12:53;12.2;;;2.2;;
74457;SDS011;62896;51.032;3.712;2023-04-25T20:16:13;12.2;;;2.2;;
74457;SDS011;62896;51.032;3.712;2023-04-25T20:19:33;12.2;;;2.2;;
74457;SDS011;62896;51.032;3.712;2023-04-25T20:22:53;12.2;;;2.2;;
74457;SDS011;62896;51.032;3.712;2023-04-25T20:26:13;12.2;;;2.2;;
74457;SDS011;62896;51.032;3.712;2023-04-25T20:29:33;12.2;;;2.2;;
74457;SDS011;62896;51.032;3.712;2023-04-25T20:32:53;12.2;;;2.2;;
74457;SDS011;62896;51.032;3.712;2023-04-25T20:36:13;11.1;;;2.2;;
74457;SDS011;62896;51.032;3.712;2023-04-25T20:39:33;11.1;;;2.2;;
74457;SDS011;62896;51.032;3.712;2023-04-25T20:42:53;11.1;;;2.2;;